createdAt,value
2016-06-12T00:00:48.342Z,21.77
2016-06-12T00:01:48.329Z,21.92
2016-06-12T00:02:48.317Z,21.67
2016-06-12T00:03:48.304Z,21.76
2016-06-12T00:04:48.510Z,21.69
2016-06-12T00:05:48.279Z,21.75
2016-06-12T00:06:48.111Z,21.66
2016-06-12T00:07:48.255Z,21.62
2016-06-12T00:08:48.267Z,21.57
2016-06-12T00:09:48.153Z,21.66
2016-06-12T00:10:48.303Z,21.58
2016-06-12T00:11:48.344Z,21.43
2016-06-12T00:12:48.369Z,21.55
2016-06-12T00:13:48.379Z,21.51
2016-06-12T00:14:48.379Z,21.54
2016-06-12T00:15:48.382Z,21.69
2016-06-12T00:16:48.366Z,21.77
2016-06-12T00:17:48.368Z,21.55
2016-06-12T00:18:48.363Z,21.33
2016-06-12T00:19:48.371Z,21.46
2016-06-12T00:20:48.801Z,21.54
2016-06-12T00:21:48.340Z,21.37
2016-06-12T00:22:48.317Z,21.46
2016-06-12T00:23:48.307Z,21.54
2016-06-12T00:24:48.297Z,21.46
2016-06-12T00:25:48.286Z,21.58
2016-06-12T00:26:48.275Z,21.66
2016-06-12T00:27:48.109Z,21.58
2016-06-12T00:28:48.253Z,21.62
2016-06-12T00:29:48.242Z,21.67
2016-06-12T00:30:48.229Z,21.61
2016-06-12T00:31:48.202Z,21.69
2016-06-12T00:32:48.189Z,21.76
2016-06-12T00:33:48.193Z,21.76
2016-06-12T00:34:48.024Z,21.66
2016-06-12T00:35:49.293Z,21.66
2016-06-12T00:36:48.141Z,21.5
2016-06-12T00:37:48.128Z,21.55
2016-06-12T00:38:48.115Z,21.5
2016-06-12T00:39:48.104Z,21.51
2016-06-12T00:40:48.074Z,21.57
2016-06-12T00:41:48.063Z,21.45
2016-06-12T00:42:48.049Z,21.43
2016-06-12T00:43:48.053Z,21.4
2016-06-12T00:44:48.025Z,21.57
2016-06-12T00:45:48.012Z,21.76
2016-06-12T00:46:48.000Z,21.58
2016-06-12T00:47:47.987Z,21.66
2016-06-12T00:48:47.974Z,21.73
2016-06-12T00:49:48.478Z,21.76
2016-06-12T00:50:48.324Z,21.69
2016-06-12T00:51:47.953Z,21.7
2016-06-12T00:52:47.908Z,21.83
2016-06-12T00:53:47.897Z,21.82
2016-06-12T00:54:47.884Z,21.79
2016-06-12T00:55:47.870Z,21.61
2016-06-12T00:56:47.859Z,21.57
2016-06-12T00:57:47.846Z,21.62
2016-06-12T00:58:47.834Z,21.73
2016-06-12T00:59:47.805Z,21.82
2016-06-12T01:00:47.793Z,21.83
2016-06-12T01:01:47.780Z,21.91
2016-06-12T01:02:47.767Z,22.02
2016-06-12T01:03:47.756Z,21.83
2016-06-12T01:04:47.758Z,21.98
2016-06-12T01:05:48.386Z,21.77
2016-06-12T01:06:47.717Z,21.72
2016-06-12T01:07:47.721Z,21.72
2016-06-12T01:08:47.692Z,21.85
2016-06-12T01:09:47.664Z,22.02
2016-06-12T01:10:47.667Z,22.04
2016-06-12T01:11:47.654Z,22.02
2016-06-12T01:12:47.642Z,22.14
2016-06-12T01:13:47.614Z,22.13
2016-06-12T01:14:47.601Z,22.11
2016-06-12T01:15:47.621Z,21.98
2016-06-12T01:16:47.592Z,22.06
2016-06-12T01:17:47.564Z,21.82
2016-06-12T01:18:47.551Z,21.62
2016-06-12T01:19:47.538Z,21.51
2016-06-12T01:20:47.541Z,21.64
2016-06-12T01:21:47.513Z,21.89
2016-06-12T01:22:47.501Z,21.64
2016-06-12T01:23:47.473Z,21.54
2016-06-12T01:24:47.460Z,21.66
2016-06-12T01:25:47.292Z,21.79
2016-06-12T01:26:47.435Z,21.76
2016-06-12T01:27:47.438Z,21.62
2016-06-12T01:28:47.410Z,21.67
2016-06-12T01:29:47.397Z,21.66
2016-06-12T01:30:47.386Z,21.72
2016-06-12T01:31:47.372Z,21.93
2016-06-12T01:32:47.188Z,21.8
2016-06-12T01:33:47.348Z,21.83
2016-06-12T01:34:48.054Z,21.92
2016-06-12T01:35:48.666Z,21.82
2016-06-12T01:36:47.294Z,21.79
2016-06-12T01:37:47.282Z,21.77
2016-06-12T01:38:47.269Z,21.51
2016-06-12T01:39:47.256Z,21.42
2016-06-12T01:40:47.229Z,21.64
2016-06-12T01:41:47.231Z,21.66
2016-06-12T01:42:47.203Z,21.72
2016-06-12T01:43:47.190Z,21.76
2016-06-12T01:44:47.194Z,21.73
2016-06-12T01:45:47.166Z,21.7
2016-06-12T01:46:46.996Z,21.79
2016-06-12T01:47:47.141Z,21.82
2016-06-12T01:48:47.128Z,21.93
2016-06-12T01:49:47.116Z,21.96
2016-06-12T01:50:46.790Z,21.77
2016-06-12T01:51:47.090Z,21.58
2016-06-12T01:52:47.078Z,21.72
2016-06-12T01:53:47.049Z,21.72
2016-06-12T01:54:47.038Z,21.7
2016-06-12T01:55:47.040Z,21.57
2016-06-12T01:56:47.012Z,21.69
2016-06-12T01:57:47.000Z,21.54
2016-06-12T01:58:47.002Z,21.72
2016-06-12T01:59:46.975Z,21.82
2016-06-12T02:00:46.962Z,21.89
2016-06-12T02:01:46.949Z,21.92
2016-06-12T02:02:46.921Z,21.95
2016-06-12T02:03:46.924Z,21.73
2016-06-12T02:04:46.912Z,21.73
2016-06-12T02:05:47.321Z,21.79
2016-06-12T02:06:46.871Z,21.8
2016-06-12T02:07:46.858Z,21.67
2016-06-12T02:08:46.846Z,21.64
2016-06-12T02:09:46.834Z,21.69
2016-06-12T02:10:46.821Z,21.64
2016-06-12T02:11:46.809Z,21.69
2016-06-12T02:12:46.780Z,21.45
2016-06-12T02:13:46.783Z,21.45
2016-06-12T02:14:46.599Z,21.61
2016-06-12T02:15:46.742Z,21.54
2016-06-12T02:16:46.730Z,21.62
2016-06-12T02:17:46.733Z,21.73
2016-06-12T02:18:46.548Z,21.64
2016-06-12T02:19:46.692Z,21.39
2016-06-12T02:20:46.695Z,21.36
2016-06-12T02:21:46.715Z,21.39
2016-06-12T02:22:46.670Z,21.51
2016-06-12T02:23:46.688Z,21.52
2016-06-12T02:24:46.644Z,21.46
2016-06-12T02:25:46.602Z,21.6
2016-06-12T02:26:46.433Z,21.72
2016-06-12T02:27:46.575Z,21.67
2016-06-12T02:28:46.564Z,21.62
2016-06-12T02:29:46.395Z,21.7
2016-06-12T02:30:46.538Z,21.73
2016-06-12T02:31:46.526Z,21.8
2016-06-12T02:32:46.358Z,21.64
2016-06-12T02:33:46.485Z,21.66
2016-06-12T02:34:46.519Z,21.6
2016-06-12T02:35:46.788Z,21.79
2016-06-12T02:36:46.447Z,21.57
2016-06-12T02:37:46.435Z,21.7
2016-06-12T02:38:46.423Z,21.64
2016-06-12T02:39:46.410Z,21.67
2016-06-12T02:40:46.412Z,21.64
2016-06-12T02:41:46.385Z,21.55
2016-06-12T02:42:46.388Z,21.46
2016-06-12T02:43:46.344Z,21.54
2016-06-12T02:44:46.331Z,21.61
2016-06-12T02:45:46.334Z,21.5
2016-06-12T02:46:46.306Z,21.43
2016-06-12T02:47:46.294Z,21.29
2016-06-12T02:48:46.281Z,21.42
2016-06-12T02:49:46.112Z,21.37
2016-06-12T02:50:46.506Z,21.43
2016-06-12T02:51:46.244Z,21.2
2016-06-12T02:52:46.074Z,21.25
2016-06-12T02:53:46.218Z,21.33
2016-06-12T02:54:46.206Z,21.25
2016-06-12T02:55:46.194Z,21.22
2016-06-12T02:56:46.164Z,21.29
2016-06-12T02:57:46.168Z,21.24
2016-06-12T02:58:46.140Z,21.43
2016-06-12T02:59:46.127Z,21.46
2016-06-12T03:00:46.099Z,21.42
2016-06-12T03:01:46.102Z,21.37
2016-06-12T03:02:46.090Z,21.39
2016-06-12T03:03:49.093Z,21.48
2016-06-12T03:04:46.050Z,21.45
2016-06-12T03:05:46.364Z,21.32
2016-06-12T03:06:45.711Z,21.2
2016-06-12T03:07:46.027Z,21.4
2016-06-12T03:08:45.999Z,21.48
2016-06-12T03:09:45.986Z,21.45
2016-06-12T03:10:45.974Z,21.17
2016-06-12T03:11:45.961Z,21.21
2016-06-12T03:12:45.792Z,21.27
2016-06-12T03:13:45.936Z,21.3
2016-06-12T03:14:45.908Z,21.46
2016-06-12T03:15:45.896Z,21.39
2016-06-12T03:16:45.883Z,21.36
2016-06-12T03:17:45.870Z,21.18
2016-06-12T03:18:45.857Z,21.17
2016-06-12T03:19:45.845Z,21.2
2016-06-12T03:20:46.286Z,21.2
2016-06-12T03:21:45.804Z,21.14
2016-06-12T03:22:45.791Z,21.12
2016-06-12T03:23:45.780Z,20.97
2016-06-12T03:24:45.767Z,21.09
2016-06-12T03:25:45.754Z,21.21
2016-06-12T03:26:45.742Z,21.14
2016-06-12T03:27:45.713Z,21.22
2016-06-12T03:28:45.701Z,21.15
2016-06-12T03:29:45.689Z,21.05
2016-06-12T03:30:45.676Z,21.12
2016-06-12T03:31:45.679Z,21.15
2016-06-12T03:32:45.495Z,21.22
2016-06-12T03:33:45.639Z,21.17
2016-06-12T03:34:45.626Z,21.03
2016-06-12T03:35:46.097Z,21.03
2016-06-12T03:36:45.445Z,21.09
2016-06-12T03:37:45.573Z,21.03
2016-06-12T03:38:45.560Z,20.88
2016-06-12T03:39:45.391Z,20.96
2016-06-12T03:40:45.535Z,20.85
2016-06-12T03:41:45.523Z,20.78
2016-06-12T03:42:45.509Z,20.82
2016-06-12T03:43:45.497Z,20.82
2016-06-12T03:44:45.328Z,20.85
2016-06-12T03:45:45.456Z,20.81
2016-06-12T03:46:45.444Z,20.8
2016-06-12T03:47:45.432Z,20.96
2016-06-12T03:48:45.418Z,20.77
2016-06-12T03:49:45.250Z,20.88
2016-06-12T03:50:45.238Z,21.12
2016-06-12T03:51:45.381Z,21.11
2016-06-12T03:52:45.369Z,21.06
2016-06-12T03:53:45.340Z,21.18
2016-06-12T03:54:45.329Z,21.18
2016-06-12T03:55:45.315Z,21
2016-06-12T03:56:45.302Z,20.84
2016-06-12T03:57:45.290Z,20.85
2016-06-12T03:58:45.293Z,20.96
2016-06-12T03:59:45.266Z,20.92
2016-06-12T04:00:45.253Z,20.87
2016-06-12T04:01:45.239Z,20.92
2016-06-12T04:02:45.227Z,20.85
2016-06-12T04:03:45.199Z,20.84
2016-06-12T04:04:45.187Z,20.85
2016-06-12T04:05:45.174Z,20.82
2016-06-12T04:06:45.177Z,20.82
2016-06-12T04:07:45.165Z,20.88
2016-06-12T04:08:45.121Z,20.85
2016-06-12T04:09:45.124Z,20.78
2016-06-12T04:10:45.095Z,20.85
2016-06-12T04:11:45.083Z,20.95
2016-06-12T04:12:45.070Z,20.8
2016-06-12T04:13:45.059Z,20.74
2016-06-12T04:14:45.045Z,20.66
2016-06-12T04:15:45.033Z,20.82
2016-06-12T04:16:45.021Z,20.85
2016-06-12T04:17:45.008Z,20.88
2016-06-12T04:18:44.994Z,20.96
2016-06-12T04:19:44.967Z,21.17
2016-06-12T04:20:46.283Z,20.88
2016-06-12T04:21:45.208Z,20.96
2016-06-12T04:22:44.929Z,21.02
2016-06-12T04:23:44.917Z,20.99
2016-06-12T04:24:44.889Z,20.81
2016-06-12T04:25:44.876Z,20.87
2016-06-12T04:26:44.863Z,20.87
2016-06-12T04:27:44.851Z,20.81
2016-06-12T04:28:44.839Z,20.81
2016-06-12T04:29:44.826Z,20.78
2016-06-12T04:30:44.798Z,20.72
2016-06-12T04:31:44.800Z,20.82
2016-06-12T04:32:44.773Z,20.87
2016-06-12T04:33:44.760Z,20.75
2016-06-12T04:34:44.748Z,20.77
2016-06-12T04:35:45.610Z,20.84
2016-06-12T04:36:44.769Z,20.81
2016-06-12T04:37:44.711Z,20.78
2016-06-12T04:38:44.681Z,20.77
2016-06-12T04:39:44.684Z,20.67
2016-06-12T04:40:44.657Z,20.52
2016-06-12T04:41:44.660Z,20.66
2016-06-12T04:42:44.632Z,20.77
2016-06-12T04:43:44.619Z,20.87
2016-06-12T04:44:44.607Z,20.82
2016-06-12T04:45:44.578Z,20.78
2016-06-12T04:46:44.566Z,20.65
2016-06-12T04:47:44.410Z,20.41
2016-06-12T04:48:44.541Z,20.52
2016-06-12T04:49:44.525Z,20.56
2016-06-12T04:50:44.372Z,20.66
2016-06-12T04:51:44.500Z,20.74
2016-06-12T04:52:44.504Z,20.74
2016-06-12T04:53:44.459Z,20.75
2016-06-12T04:54:44.446Z,20.9
2016-06-12T04:55:44.450Z,20.81
2016-06-12T04:56:44.422Z,20.74
2016-06-12T04:57:44.408Z,20.52
2016-06-12T04:58:44.397Z,20.62
2016-06-12T04:59:44.384Z,20.52
2016-06-12T05:00:44.371Z,20.66
2016-06-12T05:01:44.359Z,20.72
2016-06-12T05:02:44.346Z,20.69
2016-06-12T05:03:44.318Z,20.69
2016-06-12T05:04:44.305Z,20.75
2016-06-12T05:05:44.136Z,20.67
2016-06-12T05:06:44.140Z,20.67
2016-06-12T05:07:44.268Z,20.81
2016-06-12T05:08:44.255Z,20.88
2016-06-12T05:09:44.242Z,20.77
2016-06-12T05:10:44.215Z,20.69
2016-06-12T05:11:44.046Z,20.67
2016-06-12T05:12:44.189Z,20.69
2016-06-12T05:13:44.177Z,20.72
2016-06-12T05:14:44.164Z,20.55
2016-06-12T05:15:44.167Z,20.56
2016-06-12T05:16:44.124Z,20.66
2016-06-12T05:17:44.127Z,20.66
2016-06-12T05:18:44.098Z,20.63
2016-06-12T05:19:44.087Z,20.67
2016-06-12T05:20:44.479Z,20.52
2016-06-12T05:21:44.060Z,20.51
2016-06-12T05:22:44.049Z,20.63
2016-06-12T05:23:44.021Z,20.78
2016-06-12T05:24:44.007Z,20.84
2016-06-12T05:25:43.995Z,20.84
2016-06-12T05:26:43.982Z,20.81
2016-06-12T05:27:43.970Z,20.78
2016-06-12T05:28:43.957Z,20.84
2016-06-12T05:29:43.945Z,20.9
2016-06-12T05:30:43.932Z,20.96
2016-06-12T05:31:43.921Z,21.05
2016-06-12T05:32:43.907Z,21.05
2016-06-12T05:33:43.880Z,21.03
2016-06-12T05:34:43.866Z,20.88
2016-06-12T05:35:43.854Z,20.88
2016-06-12T05:36:45.091Z,20.99
2016-06-12T05:37:43.845Z,20.96
2016-06-12T05:38:43.817Z,21.11
2016-06-12T05:39:43.804Z,21.21
2016-06-12T05:40:43.791Z,21.17
2016-06-12T05:41:43.763Z,21.18
2016-06-12T05:42:43.750Z,21.2
2016-06-12T05:43:43.738Z,21.09
2016-06-12T05:44:43.725Z,21.12
2016-06-12T05:45:43.713Z,21.21
2016-06-12T05:46:43.700Z,21.2
2016-06-12T05:47:43.531Z,21.14
2016-06-12T05:48:43.675Z,21.17
2016-06-12T05:49:43.646Z,21.17
2016-06-12T05:50:43.634Z,21.07
2016-06-12T05:51:43.919Z,21.14
2016-06-12T05:52:43.610Z,21.25
2016-06-12T05:53:43.597Z,21.29
2016-06-12T05:54:43.569Z,21.24
2016-06-12T05:55:43.556Z,21.32
2016-06-12T05:56:43.543Z,21.24
2016-06-12T05:57:43.546Z,21.22
2016-06-12T05:58:43.519Z,21.22
2016-06-12T05:59:43.506Z,21.22
2016-06-12T06:00:43.493Z,21.24
2016-06-12T06:01:43.325Z,21.27
2016-06-12T06:02:43.468Z,21.24
2016-06-12T06:03:43.456Z,21.39
2016-06-12T06:04:43.427Z,21.2
2016-06-12T06:05:43.415Z,21.2
2016-06-12T06:06:43.839Z,21.29
2016-06-12T06:07:43.390Z,21.39
2016-06-12T06:08:43.377Z,21.33
2016-06-12T06:09:43.365Z,21.36
2016-06-12T06:10:43.336Z,21.24
2016-06-12T06:11:43.339Z,21.15
2016-06-12T06:12:43.327Z,21.12
2016-06-12T06:13:43.299Z,21.24
2016-06-12T06:14:43.130Z,21.29
2016-06-12T06:15:43.118Z,21.24
2016-06-12T06:16:43.261Z,21.2
2016-06-12T06:17:43.248Z,21.3
2016-06-12T06:18:43.236Z,21.37
2016-06-12T06:19:43.224Z,21.35
2016-06-12T06:20:43.211Z,21.55
2016-06-12T06:21:43.213Z,21.54
2016-06-12T06:22:43.170Z,21.42
2016-06-12T06:23:43.158Z,21.45
2016-06-12T06:24:43.145Z,21.67
2016-06-12T06:25:43.132Z,21.69
2016-06-12T06:26:42.965Z,21.73
2016-06-12T06:27:43.107Z,21.7
2016-06-12T06:28:43.079Z,21.64
2016-06-12T06:29:43.083Z,21.55
2016-06-12T06:30:42.898Z,21.33
2016-06-12T06:31:43.042Z,21.43
2016-06-12T06:32:43.028Z,21.66
2016-06-12T06:33:43.017Z,21.57
2016-06-12T06:34:43.004Z,21.61
2016-06-12T06:35:43.006Z,21.52
2016-06-12T06:36:43.573Z,21.36
2016-06-12T06:37:42.966Z,21.25
2016-06-12T06:38:42.954Z,21.42
2016-06-12T06:39:42.941Z,21.45
2016-06-12T06:40:42.914Z,21.37
2016-06-12T06:41:42.917Z,21.33
2016-06-12T06:42:42.903Z,21.48
2016-06-12T06:43:42.876Z,21.51
2016-06-12T06:44:42.706Z,21.54
2016-06-12T06:45:42.866Z,21.39
2016-06-12T06:46:42.838Z,21.45
2016-06-12T06:47:42.825Z,21.57
2016-06-12T06:48:42.797Z,21.52
2016-06-12T06:49:42.799Z,21.54
2016-06-12T06:50:42.788Z,21.62
2016-06-12T06:51:44.197Z,21.45
2016-06-12T06:52:42.747Z,21.5
2016-06-12T06:53:42.750Z,21.43
2016-06-12T06:54:42.737Z,21.4
2016-06-12T06:55:42.709Z,21.39
2016-06-12T06:56:42.696Z,21.37
2016-06-12T06:57:42.685Z,21.52
2016-06-12T06:58:42.688Z,21.51
2016-06-12T06:59:42.658Z,21.48
2016-06-12T07:00:42.647Z,21.46
2016-06-12T07:01:42.618Z,21.4
2016-06-12T07:02:42.606Z,21.46
2016-06-12T07:03:42.609Z,21.42
2016-06-12T07:04:42.581Z,21.57
2016-06-12T07:05:42.584Z,21.52
2016-06-12T07:06:42.587Z,21.52
2016-06-12T07:07:42.528Z,21.58
2016-06-12T07:08:42.515Z,21.69
2016-06-12T07:09:42.518Z,21.52
2016-06-12T07:10:42.505Z,21.5
2016-06-12T07:11:42.478Z,21.58
2016-06-12T07:12:42.465Z,21.7
2016-06-12T07:13:42.452Z,21.82
2016-06-12T07:14:42.439Z,21.61
2016-06-12T07:15:42.427Z,21.73
2016-06-12T07:16:42.414Z,21.73
2016-06-12T07:17:42.386Z,21.8
2016-06-12T07:18:42.374Z,21.67
2016-06-12T07:19:42.361Z,21.7
2016-06-12T07:20:42.348Z,21.83
2016-06-12T07:21:42.367Z,21.92
2016-06-12T07:22:42.339Z,21.88
2016-06-12T07:23:42.311Z,21.79
2016-06-12T07:24:42.299Z,21.76
2016-06-12T07:25:42.129Z,21.7
2016-06-12T07:26:42.274Z,21.61
2016-06-12T07:27:42.260Z,21.73
2016-06-12T07:28:42.247Z,21.88
2016-06-12T07:29:42.220Z,21.83
2016-06-12T07:30:42.207Z,21.92
2016-06-12T07:31:42.195Z,21.99
2016-06-12T07:32:42.182Z,22.1
2016-06-12T07:33:42.170Z,22.08
2016-06-12T07:34:42.157Z,22.11
2016-06-12T07:35:42.144Z,22.04
2016-06-12T07:36:42.147Z,22.14
2016-06-12T07:37:42.119Z,21.85
2016-06-12T07:38:42.107Z,21.93
2016-06-12T07:39:42.079Z,21.93
2016-06-12T07:40:42.082Z,22.06
2016-06-12T07:41:42.070Z,22.11
2016-06-12T07:42:42.041Z,21.93
2016-06-12T07:43:42.044Z,21.85
2016-06-12T07:44:42.000Z,21.89
2016-06-12T07:45:42.003Z,22
2016-06-12T07:46:41.991Z,21.96
2016-06-12T07:47:41.963Z,21.96
2016-06-12T07:48:41.966Z,21.93
2016-06-12T07:49:41.797Z,22.07
2016-06-12T07:50:41.768Z,22.13
2016-06-12T07:51:42.193Z,22.2
2016-06-12T07:52:41.743Z,22.23
2016-06-12T07:53:41.888Z,22.33
2016-06-12T07:54:41.860Z,22.41
2016-06-12T07:55:41.863Z,22.29
2016-06-12T07:56:41.866Z,22.39
2016-06-12T07:57:41.837Z,22.35
2016-06-12T07:58:41.825Z,22.48
2016-06-12T07:59:42.000Z,22.39
2016-06-12T08:00:41.784Z,22.45
2016-06-12T08:01:41.771Z,22.25
2016-06-12T08:02:41.760Z,22.2
2016-06-12T08:03:41.746Z,22.23
2016-06-12T08:04:41.750Z,22.14
2016-06-12T08:05:41.736Z,22.26
2016-06-12T08:06:41.802Z,22.26
2016-06-12T08:07:42.353Z,22.38
2016-06-12T08:08:41.683Z,22.53
2016-06-12T08:09:41.656Z,22.62
2016-06-12T08:10:41.643Z,22.54
2016-06-12T08:11:41.646Z,22.7
2016-06-12T08:12:41.633Z,22.38
2016-06-12T08:13:41.605Z,22.44
2016-06-12T08:14:41.608Z,22.44
2016-06-12T08:15:41.595Z,22.41
2016-06-12T08:16:41.567Z,22.48
2016-06-12T08:17:41.555Z,22.62
2016-06-12T08:18:41.542Z,22.69
2016-06-12T08:19:41.546Z,22.53
2016-06-12T08:20:41.517Z,22.54
2016-06-12T08:21:41.646Z,22.44
2016-06-12T08:22:41.586Z,22.48
2016-06-12T08:23:41.464Z,22.48
2016-06-12T08:24:41.452Z,22.55
2016-06-12T08:25:41.439Z,22.76
2016-06-12T08:26:41.427Z,22.81
2016-06-12T08:27:41.414Z,22.66
2016-06-12T08:28:41.401Z,22.76
2016-06-12T08:29:41.374Z,22.84
2016-06-12T08:30:41.376Z,22.73
2016-06-12T08:31:41.364Z,22.73
2016-06-12T08:32:41.351Z,22.98
2016-06-12T08:33:41.338Z,22.93
2016-06-12T08:34:41.311Z,22.94
2016-06-12T08:35:41.328Z,22.93
2016-06-12T08:36:41.364Z,22.99
2016-06-12T08:37:42.523Z,22.78
2016-06-12T08:38:41.276Z,22.94
2016-06-12T08:39:41.263Z,22.96
2016-06-12T08:40:41.235Z,22.78
2016-06-12T08:41:41.222Z,22.83
2016-06-12T08:42:41.211Z,22.81
2016-06-12T08:43:41.198Z,22.93
2016-06-12T08:44:41.028Z,23.13
2016-06-12T08:45:41.173Z,23.28
2016-06-12T08:46:41.159Z,23.37
2016-06-12T08:47:41.147Z,23.21
2016-06-12T08:48:41.135Z,23.03
2016-06-12T08:49:41.122Z,22.96
2016-06-12T08:50:41.110Z,22.91
2016-06-12T08:51:40.956Z,22.96
2016-06-12T08:52:41.366Z,23.13
2016-06-12T08:53:41.072Z,23.13
2016-06-12T08:54:41.045Z,23.06
2016-06-12T08:55:41.048Z,23.08
2016-06-12T08:56:41.018Z,23.25
2016-06-12T08:57:40.850Z,23.08
2016-06-12T08:58:40.994Z,23
2016-06-12T08:59:40.997Z,23.15
2016-06-12T09:00:40.968Z,23.13
2016-06-12T09:01:40.956Z,23.08
2016-06-12T09:02:40.944Z,23
2016-06-12T09:03:40.931Z,23.09
2016-06-12T09:04:40.903Z,23.17
2016-06-12T09:05:40.906Z,23.39
2016-06-12T09:06:40.752Z,23.25
2016-06-12T09:07:41.287Z,23.18
2016-06-12T09:08:40.869Z,23.24
2016-06-12T09:09:40.840Z,23.24
2016-06-12T09:10:40.828Z,23.43
2016-06-12T09:11:40.815Z,23.55
2016-06-12T09:12:40.817Z,23.51
2016-06-12T09:13:40.805Z,23.55
2016-06-12T09:14:40.794Z,23.41
2016-06-12T09:15:40.806Z,23.43
2016-06-12T09:16:40.834Z,23.51
2016-06-12T09:17:40.878Z,23.66
2016-06-12T09:18:40.891Z,23.77
2016-06-12T09:19:40.918Z,23.63
2016-06-12T09:20:40.921Z,23.62
2016-06-12T09:21:40.922Z,23.44
2016-06-12T09:22:41.362Z,23.4
2016-06-12T09:23:40.927Z,23.73
2016-06-12T09:24:40.928Z,23.77
2016-06-12T09:25:40.936Z,23.71
2016-06-12T09:26:40.913Z,23.78
2016-06-12T09:27:40.733Z,23.69
2016-06-12T09:28:40.742Z,23.88
2016-06-12T09:29:40.875Z,23.84
2016-06-12T09:30:40.880Z,23.91
2016-06-12T09:31:40.853Z,24.06
2016-06-12T09:32:40.844Z,23.98
2016-06-12T09:33:40.832Z,23.98
2016-06-12T09:34:40.821Z,24.18
2016-06-12T09:35:40.810Z,24.3
2016-06-12T09:36:40.814Z,24.36
2016-06-12T09:37:41.224Z,24.4
2016-06-12T09:38:40.789Z,24.43
2016-06-12T09:39:40.794Z,24.3
2016-06-12T09:40:40.751Z,24.45
2016-06-12T09:41:40.754Z,24.42
2016-06-12T09:42:40.726Z,24.38
2016-06-12T09:43:40.729Z,24.33
2016-06-12T09:44:40.702Z,24.35
2016-06-12T09:45:40.705Z,24.5
2016-06-12T09:46:40.692Z,24.63
2016-06-12T09:47:40.664Z,24.78
2016-06-12T09:48:40.652Z,24.74
2016-06-12T09:49:40.639Z,24.73
2016-06-12T09:50:40.626Z,24.93
2016-06-12T09:51:40.615Z,24.74
2016-06-12T09:52:40.742Z,24.73
2016-06-12T09:53:40.588Z,24.73
2016-06-12T09:54:40.577Z,24.7
2016-06-12T09:55:40.564Z,24.65
2016-06-12T09:56:40.551Z,24.66
2016-06-12T09:57:40.538Z,24.98
2016-06-12T09:58:40.370Z,24.99
2016-06-12T09:59:40.357Z,24.84
2016-06-12T10:00:40.517Z,24.74
2016-06-12T10:01:40.488Z,24.74
2016-06-12T10:02:40.476Z,24.88
2016-06-12T10:03:40.463Z,24.92
2016-06-12T10:04:40.451Z,25.08
2016-06-12T10:05:40.454Z,24.91
2016-06-12T10:06:40.426Z,25.04
2016-06-12T10:07:41.381Z,24.86
2016-06-12T10:08:40.400Z,24.91
2016-06-12T10:09:40.388Z,24.95
2016-06-12T10:10:40.376Z,25.06
2016-06-12T10:11:40.362Z,24.95
2016-06-12T10:12:40.351Z,24.93
2016-06-12T10:13:40.338Z,24.99
2016-06-12T10:14:40.325Z,25.17
2016-06-12T10:15:40.328Z,25.07
2016-06-12T10:16:40.300Z,24.93
2016-06-12T10:17:40.287Z,25.11
2016-06-12T10:18:40.275Z,25.36
2016-06-12T10:19:40.279Z,25.43
2016-06-12T10:20:40.250Z,25.26
2016-06-12T10:21:40.237Z,25.44
2016-06-12T10:22:40.241Z,25.55
2016-06-12T10:23:40.213Z,25.78
2016-06-12T10:24:40.200Z,25.88
2016-06-12T10:25:40.187Z,26.1
2016-06-12T10:26:40.175Z,26.09
2016-06-12T10:27:40.178Z,26.15
2016-06-12T10:28:40.165Z,26.06
2016-06-12T10:29:40.137Z,26.22
2016-06-12T10:30:44.327Z,25.93
2016-06-12T10:31:39.972Z,26.16
2016-06-12T10:32:40.116Z,26.38
2016-06-12T10:33:40.103Z,26.53
2016-06-12T10:34:40.089Z,26.56
2016-06-12T10:35:40.078Z,26.51
2016-06-12T10:36:40.065Z,26.7
2016-06-12T10:37:40.053Z,26.89
2016-06-12T10:38:39.899Z,27.07
2016-06-12T10:39:40.027Z,27.17
2016-06-12T10:40:40.015Z,27.11
2016-06-12T10:41:40.018Z,27.11
2016-06-12T10:42:39.989Z,27.1
2016-06-12T10:43:39.977Z,27.17
2016-06-12T10:44:39.980Z,26.89
2016-06-12T10:45:39.967Z,26.96
2016-06-12T10:46:39.970Z,26.95
2016-06-12T10:47:39.942Z,26.96
2016-06-12T10:48:39.930Z,27.18
2016-06-12T10:49:39.918Z,27.2
2016-06-12T10:50:39.920Z,27.25
2016-06-12T10:51:39.892Z,27.37
2016-06-12T10:52:40.005Z,27.54
2016-06-12T10:53:39.882Z,27.68
2016-06-12T10:54:39.870Z,27.75
2016-06-12T10:55:39.858Z,27.44
2016-06-12T10:56:39.845Z,27.67
2016-06-12T10:57:39.848Z,27.64
2016-06-12T10:58:39.821Z,27.25
2016-06-12T10:59:39.807Z,27.26
2016-06-12T11:00:39.810Z,27.8
2016-06-12T11:01:39.797Z,28
2016-06-12T11:02:39.786Z,28.02
2016-06-12T11:03:39.773Z,27.58
2016-06-12T11:04:39.744Z,27.73
2016-06-12T11:05:39.748Z,27.85
2016-06-12T11:06:39.735Z,27.55
2016-06-12T11:07:40.097Z,27.71
2016-06-12T11:08:39.804Z,27.4
2016-06-12T11:09:39.697Z,27.47
2016-06-12T11:10:39.700Z,28
2016-06-12T11:11:39.688Z,27.9
2016-06-12T11:12:39.675Z,28.22
2016-06-12T11:13:39.663Z,28.2
2016-06-12T11:14:39.651Z,28.41
2016-06-12T11:15:39.638Z,28.2
2016-06-12T11:16:39.626Z,28.15
2016-06-12T11:17:39.629Z,28.44
2016-06-12T11:18:39.599Z,28.63
2016-06-12T11:19:39.588Z,28.88
2016-06-12T11:20:39.591Z,29.07
2016-06-12T11:21:39.578Z,29.38
2016-06-12T11:22:39.706Z,29.45
2016-06-12T11:23:39.412Z,29.6
2016-06-12T11:24:39.400Z,29.38
2016-06-12T11:25:39.543Z,29.51
2016-06-12T11:26:39.531Z,29.29
2016-06-12T11:27:39.518Z,29.27
2016-06-12T11:28:39.505Z,29.47
2016-06-12T11:29:39.494Z,29.39
2016-06-12T11:30:39.480Z,29.35
2016-06-12T11:31:39.483Z,29.56
2016-06-12T11:32:39.472Z,29.56
2016-06-12T11:33:39.459Z,29.36
2016-06-12T11:34:39.462Z,29.69
2016-06-12T11:35:39.434Z,29.87
2016-06-12T11:36:39.437Z,30.09
2016-06-12T11:37:39.909Z,30.27
2016-06-12T11:38:39.116Z,29.97
2016-06-12T11:39:39.431Z,29.71
2016-06-12T11:40:39.418Z,29.78
2016-06-12T11:41:39.405Z,29.6
2016-06-12T11:42:39.236Z,29.53
2016-06-12T11:43:39.395Z,30.25
2016-06-12T11:44:39.226Z,30.66
2016-06-12T11:45:39.387Z,31.22
2016-06-12T11:46:39.374Z,31.33
2016-06-12T11:47:39.377Z,30.83
2016-06-12T11:48:39.380Z,31.12
2016-06-12T11:49:39.367Z,30.83
2016-06-12T11:50:39.370Z,31.28
2016-06-12T11:51:39.358Z,31.61
2016-06-12T11:52:39.064Z,31.55
2016-06-12T11:53:39.365Z,31.97
2016-06-12T11:54:39.367Z,32.14
2016-06-12T11:55:39.371Z,32.18
2016-06-12T11:56:39.358Z,32.52
2016-06-12T11:57:39.204Z,32.31
2016-06-12T11:58:39.347Z,32.46
2016-06-12T11:59:39.367Z,32.43
2016-06-12T12:00:39.354Z,32.18
2016-06-12T12:01:39.357Z,31.55
2016-06-12T12:02:39.345Z,32.63
2016-06-12T12:03:39.363Z,32.8
2016-06-12T12:04:39.366Z,32.73
2016-06-12T12:05:39.369Z,32.41
2016-06-12T12:06:39.357Z,32.63
2016-06-12T12:07:40.407Z,33.36
2016-06-12T12:08:39.238Z,33.55
2016-06-12T12:09:39.366Z,32.75
2016-06-12T12:10:39.214Z,33.07
2016-06-12T12:11:39.387Z,32.6
2016-06-12T12:12:39.359Z,32.19
2016-06-12T12:13:39.207Z,32.22
2016-06-12T12:14:39.366Z,32.64
2016-06-12T12:15:39.385Z,33.01
2016-06-12T12:16:39.373Z,32.82
2016-06-12T12:17:39.375Z,33.07
2016-06-12T12:18:39.378Z,33.19
2016-06-12T12:19:39.367Z,32.86
2016-06-12T12:20:39.370Z,33.28
2016-06-12T12:21:39.373Z,33.4
2016-06-12T12:22:39.813Z,33.8
2016-06-12T12:23:39.066Z,32.71
2016-06-12T12:24:39.381Z,32.41
2016-06-12T12:25:39.385Z,32.83
2016-06-12T12:26:39.372Z,32.41
2016-06-12T12:27:39.374Z,32.83
2016-06-12T12:28:39.394Z,33.59
2016-06-12T12:29:39.397Z,33.92
2016-06-12T12:30:39.400Z,33.89
2016-06-12T12:31:39.388Z,34.78
2016-06-12T12:32:39.406Z,34.24
2016-06-12T12:33:39.394Z,34.5
2016-06-12T12:34:39.413Z,34.74
2016-06-12T12:35:39.399Z,35.29
2016-06-12T12:36:39.402Z,35.48
2016-06-12T12:37:39.405Z,34.51
2016-06-12T12:38:39.892Z,34.57
2016-06-12T12:39:39.412Z,34.05
2016-06-12T12:40:39.415Z,34.21
2016-06-12T12:41:39.448Z,33.86
2016-06-12T12:42:39.421Z,33.73
2016-06-12T12:43:39.424Z,34.5
2016-06-12T12:44:39.428Z,34.33
2016-06-12T12:45:39.430Z,34.3
2016-06-12T12:46:39.433Z,34.74
2016-06-12T12:47:39.280Z,34.93
2016-06-12T12:48:39.439Z,34.99
2016-06-12T12:49:39.443Z,35.78
2016-06-12T12:50:39.446Z,36.28
2016-06-12T12:51:39.449Z,36.65
2016-06-12T12:52:39.452Z,36.91
2016-06-12T12:53:39.455Z,36.25
2016-06-12T12:54:39.458Z,36.04
2016-06-12T12:55:39.461Z,35.24